Time;durP1;ratioP1;P1;durP2;ratioP2;P2;SDS_P1;SDS_P2;PMS_P1;PMS_P2;Temp;Humidity;BMP_temperature;BMP_pressure;BME280_temperature;BME280_humidity;BME280_pressure;Samples;Min_cycle;Max_cycle;Signal;HPM_P1;HPM_P2
2022/07/21 00:01:11;;;;;;;2.88;0.80;;;;;;;18.11;100.00;101596.56;5074813;28;20118;-87
2022/07/21 00:03:38;;;;;;;1.60;0.80;;;;;;;17.96;100.00;101606.25;5079994;28;20051;-87
2022/07/21 00:06:06;;;;;;;1.17;0.70;;;;;;;18.17;100.00;101590.94;5063069;28;20093;-87
2022/07/21 00:08:33;;;;;;;2.28;0.80;;;;;;;18.33;100.00;101598.03;5068117;28;20060;-87
2022/07/21 00:10:59;;;;;;;2.20;0.70;;;;;;;18.28;100.00;101600.94;5082906;28;20056;-87
2022/07/21 00:13:26;;;;;;;1.23;0.70;;;;;;;18.09;100.00;101595.81;5090733;28;20685;-88
2022/07/21 00:15:54;;;;;;;4.85;1.10;;;;;;;18.29;100.00;101602.66;5063179;28;20049;-87
2022/07/21 00:18:21;;;;;;;2.85;0.80;;;;;;;18.32;100.00;101598.97;5087437;28;20110;-86
2022/07/21 00:20:49;;;;;;;3.92;0.93;;;;;;;18.36;100.00;101601.38;5076637;28;20052;-87
2022/07/21 00:23:16;;;;;;;1.42;0.80;;;;;;;17.96;100.00;101586.84;5069423;28;20054;-87
2022/07/21 00:25:43;;;;;;;2.80;0.80;;;;;;;18.01;100.00;101600.69;5090172;28;20048;-87
2022/07/21 00:28:10;;;;;;;3.63;0.93;;;;;;;17.96;100.00;101584.19;5089514;28;20054;-87
2022/07/21 00:30:37;;;;;;;2.53;0.80;;;;;;;18.14;100.00;101587.63;5088305;28;20045;-87
2022/07/21 00:33:05;;;;;;;2.15;0.70;;;;;;;17.91;100.00;101586.25;5070316;28;20374;-87
2022/07/21 00:35:32;;;;;;;2.92;1.00;;;;;;;17.86;100.00;101583.84;5080283;28;20071;-87
2022/07/21 00:37:59;;;;;;;3.13;1.08;;;;;;;17.91;100.00;101597.69;5087399;28;20409;-88
2022/07/21 00:40:26;;;;;;;7.55;1.15;;;;;;;17.78;100.00;101604.56;5093300;28;20055;-87
2022/07/21 00:42:53;;;;;;;6.70;1.00;;;;;;;17.78;100.00;101605.41;5075164;28;20040;-87
2022/07/21 00:45:20;;;;;;;3.92;0.95;;;;;;;17.64;100.00;101595.56;5076399;28;20478;-87
2022/07/21 00:47:46;;;;;;;2.38;0.95;;;;;;;17.79;100.00;101579.78;5066432;28;20045;-87
2022/07/21 00:50:17;;;;;;;4.03;1.10;;;;;;;17.74;100.00;101598.59;5065581;28;20051;-87
2022/07/21 00:52:45;;;;;;;5.82;1.30;;;;;;;17.68;100.00;101596.25;5061856;28;20044;-87
2022/07/21 00:55:18;;;;;;;6.28;1.13;;;;;;;17.79;100.00;101598.31;5076909;28;20050;-88
2022/07/21 00:57:45;;;;;;;2.22;0.90;;;;;;;17.73;100.00;101580.97;5070607;28;20054;-87
2022/07/21 01:00:16;;;;;;;4.95;1.30;;;;;;;17.82;100.00;101583.13;5066655;28;20060;-87
2022/07/21 01:02:44;;;;;;;2.80;0.90;;;;;;;17.65;100.00;101593.75;5074807;28;20050;-87
2022/07/21 01:05:15;;;;;;;3.20;1.00;;;;;;;17.73;100.00;101580.13;5065261;28;20058;-87
2022/07/21 01:07:44;;;;;;;2.42;1.00;;;;;;;17.69;100.00;101587.38;5065611;28;20055;-87
2022/07/21 01:10:12;;;;;;;5.30;1.00;;;;;;;17.51;100.00;101578.63;5076191;28;20054;-87
2022/07/21 01:12:40;;;;;;;4.70;1.10;;;;;;;17.70;100.00;101585.59;5082281;28;20138;-87
2022/07/21 01:15:09;;;;;;;5.35;1.58;;;;;;;17.52;100.00;101600.66;5083975;28;20413;-87
2022/07/21 01:17:37;;;;;;;2.47;1.10;;;;;;;17.41;100.00;101590.66;5102494;28;20054;-87
2022/07/21 01:20:08;;;;;;;4.20;1.02;;;;;;;17.70;100.00;101567.88;5076799;28;20060;-87
2022/07/21 01:22:37;;;;;;;4.18;1.17;;;;;;;17.34;100.00;101591.91;5077279;28;20043;-87
2022/07/21 01:25:05;;;;;;;4.93;1.15;;;;;;;17.37;100.00;101595.25;5074823;28;20048;-87
2022/07/21 01:27:32;;;;;;;4.65;1.35;;;;;;;17.65;100.00;101591.13;5068507;28;20054;-87
2022/07/21 01:29:59;;;;;;;3.67;0.98;;;;;;;17.58;100.00;101598.56;5073209;28;20052;-87
2022/07/21 01:32:26;;;;;;;2.60;0.90;;;;;;;17.73;100.00;101596.00;5060883;28;20050;-87
2022/07/21 01:34:53;;;;;;;3.67;1.17;;;;;;;17.84;100.00;101597.13;5096575;28;20048;-87
2022/07/21 01:37:21;;;;;;;4.20;1.10;;;;;;;17.79;100.00;101611.56;5067282;28;20066;-87
2022/07/21 01:42:36;;;;;;;5.57;1.20;;;;;;;17.56;100.00;101603.06;5092087;28;20040;-87
2022/07/21 01:45:04;;;;;;;4.53;1.30;;;;;;;17.80;100.00;101615.94;5056148;28;20056;-87
2022/07/21 01:47:32;;;;;;;5.18;1.40;;;;;;;17.64;100.00;101611.44;5077697;28;20054;-86
2022/07/21 01:49:59;;;;;;;6.30;1.30;;;;;;;17.52;100.00;101609.47;5083797;28;20505;-87
2022/07/21 01:52:25;;;;;;;3.70;1.05;;;;;;;17.40;100.00;101612.75;5073176;28;20044;-87
2022/07/21 01:54:52;;;;;;;3.83;1.27;;;;;;;17.46;100.00;101620.38;5082324;28;20052;-87
2022/07/21 01:57:19;;;;;;;4.90;1.40;;;;;;;17.05;100.00;101611.00;5074519;28;20055;-87
2022/07/21 01:59:46;;;;;;;9.63;1.50;;;;;;;17.29;100.00;101597.44;5055487;28;20064;-87
2022/07/21 02:02:12;;;;;;;2.90;1.10;;;;;;;17.34;100.00;101607.78;5067250;28;20371;-86
2022/07/21 02:04:39;;;;;;;6.43;1.60;;;;;;;17.32;100.00;101610.50;5069874;28;20056;-86
2022/07/21 02:07:06;;;;;;;2.90;1.00;;;;;;;17.63;100.00;101627.41;5063044;28;20151;-87
2022/07/21 02:09:33;;;;;;;4.00;1.10;;;;;;;17.25;100.00;101617.91;5089126;28;20052;-87
2022/07/21 02:11:59;;;;;;;2.60;0.90;;;;;;;17.50;100.00;101627.22;5074488;28;20044;-87
2022/07/21 02:14:26;;;;;;;2.70;1.05;;;;;;;17.64;100.00;101622.03;5066209;28;20040;-87
2022/07/21 02:16:53;;;;;;;4.88;1.42;;;;;;;17.71;100.00;101627.03;5090193;28;20047;-87
2022/07/21 02:19:20;;;;;;;3.58;1.23;;;;;;;17.75;100.00;101617.97;5076244;28;20052;-87
2022/07/21 02:21:46;;;;;;;2.47;0.73;;;;;;;17.59;100.00;101618.78;5088664;28;20044;-87
2022/07/21 02:24:13;;;;;;;2.97;1.00;;;;;;;17.57;100.00;101641.84;5079171;28;20050;-87
2022/07/21 02:26:40;;;;;;;4.57;1.10;;;;;;;17.69;100.00;101628.88;5090510;28;20051;-87
2022/07/21 02:29:06;;;;;;;4.22;1.15;;;;;;;17.40;100.00;101634.78;5078717;28;20048;-87
2022/07/21 02:31:33;;;;;;;4.00;1.20;;;;;;;17.37;100.00;101644.66;5067092;28;20066;-87
2022/07/21 02:34:00;;;;;;;4.35;1.08;;;;;;;17.06;100.00;101633.84;5073705;28;20055;-86
2022/07/21 02:36:27;;;;;;;5.40;1.20;;;;;;;17.38;100.00;101635.81;5063389;28;20044;-86
2022/07/21 02:38:54;;;;;;;4.53;1.23;;;;;;;17.48;100.00;101654.72;5063686;28;20135;-87
2022/07/21 02:41:21;;;;;;;2.70;1.00;;;;;;;17.52;100.00;101638.59;5067154;28;20071;-86
2022/07/21 02:43:48;;;;;;;3.22;1.00;;;;;;;17.28;100.00;101646.00;5064061;28;20048;-86
2022/07/21 02:46:15;;;;;;;2.92;0.90;;;;;;;17.16;100.00;101636.91;5086443;28;20048;-87
2022/07/21 02:48:42;;;;;;;3.13;1.10;;;;;;;17.27;100.00;101663.66;5074203;28;20772;-87
2022/07/21 02:51:08;;;;;;;5.00;1.10;;;;;;;17.14;100.00;101644.06;5091727;28;20048;-86
2022/07/21 02:53:35;;;;;;;3.92;1.30;;;;;;;17.22;100.00;101663.03;5072209;28;20036;-86
2022/07/21 02:56:02;;;;;;;8.88;1.25;;;;;;;17.07;100.00;101655.91;5072149;28;20658;-86
2022/07/21 02:58:29;;;;;;;2.70;1.00;;;;;;;16.86;100.00;101658.69;5074639;28;20044;-86
2022/07/21 03:00:58;;;;;;;6.50;1.17;;;;;;;17.24;100.00;101665.63;5091791;28;20044;-86
2022/07/21 03:03:28;;;;;;;3.72;1.00;;;;;;;17.51;100.00;101675.72;5065321;28;20437;-87
2022/07/21 03:05:56;;;;;;;4.18;1.00;;;;;;;17.50;100.00;101661.63;5077861;28;20055;-87
2022/07/21 03:08:24;;;;;;;3.15;1.10;;;;;;;17.63;100.00;101667.13;5067705;28;20436;-87
2022/07/21 03:10:51;;;;;;;3.80;1.00;;;;;;;17.54;100.00;101675.56;5091603;28;20048;-88
2022/07/21 03:13:18;;;;;;;5.05;1.27;;;;;;;17.62;100.00;101671.59;5065861;28;20078;-85
2022/07/21 03:15:45;;;;;;;2.75;1.08;;;;;;;17.45;100.00;101653.06;5065416;28;20056;-85
2022/07/21 03:18:12;;;;;;;4.65;1.00;;;;;;;17.50;100.00;101669.59;5079287;28;20066;-88
2022/07/21 03:20:41;;;;;;;4.57;1.23;;;;;;;17.44;100.00;101660.16;5073423;28;20406;-88
2022/07/21 03:23:08;;;;;;;4.90;1.00;;;;;;;17.13;100.00;101670.63;5067770;28;20040;-87
2022/07/21 03:25:35;;;;;;;2.47;0.93;;;;;;;17.19;100.00;101673.81;5075668;28;20045;-87
2022/07/21 03:28:02;;;;;;;2.72;0.90;;;;;;;17.25;100.00;101681.44;5087418;28;20048;-87
2022/07/21 03:30:30;;;;;;;2.35;1.00;;;;;;;17.26;100.00;101679.63;5075818;28;20126;-86
2022/07/21 03:32:57;;;;;;;3.05;0.93;;;;;;;17.16;100.00;101659.88;5063524;28;20048;-87
2022/07/21 03:35:24;;;;;;;2.70;0.90;;;;;;;17.11;100.00;101665.41;5069819;28;20052;-87
2022/07/21 03:37:59;;;;;;;2.22;0.90;;;;;;;17.25;100.00;101681.44;5073501;28;20127;-86
2022/07/21 03:40:29;;;;;;;3.25;0.95;;;;;;;17.20;100.00;101677.31;5093334;28;20119;-86
2022/07/21 03:42:58;;;;;;;1.27;0.77;;;;;;;17.10;100.00;101686.63;5076260;28;20078;-87
2022/07/21 03:45:29;;;;;;;2.53;0.80;;;;;;;17.01;100.00;101656.19;5076807;28;20058;-86
2022/07/21 03:47:58;;;;;;;2.03;0.95;;;;;;;17.29;100.00;101687.41;5064906;28;20052;-86
2022/07/21 03:50:26;;;;;;;2.65;0.93;;;;;;;16.94;100.00;101668.88;5062869;28;20055;-86
2022/07/21 03:52:53;;;;;;;3.35;1.17;;;;;;;16.96;100.00;101674.94;5056031;28;20055;-87
2022/07/21 03:55:21;;;;;;;1.70;0.95;;;;;;;16.98;100.00;101677.50;5078973;28;20048;-87
2022/07/21 03:57:53;;;;;;;2.92;1.10;;;;;;;16.74;100.00;101677.75;5077268;28;20127;-87
2022/07/21 04:00:26;;;;;;;1.88;0.90;;;;;;;16.69;100.00;101663.91;5066291;28;20093;-86
2022/07/21 04:02:53;;;;;;;;;;;;;;;16.80;100.00;101684.53;5091544;28;20375;-86
2022/07/21 04:05:20;;;;;;;4.82;1.10;;;;;;;16.74;100.00;101688.34;5076594;28;19920;-86
2022/07/21 04:07:49;;;;;;;3.22;1.02;;;;;;;16.61;100.00;101661.63;5075727;28;20056;-86
2022/07/21 04:10:18;;;;;;;4.97;1.17;;;;;;;16.65;100.00;101694.06;5059335;28;20044;-85
2022/07/21 04:12:45;;;;;;;3.40;1.20;;;;;;;16.45;100.00;101687.94;5075036;28;20101;-86
2022/07/21 04:15:13;;;;;;;4.45;1.23;;;;;;;16.67;100.00;101685.13;5071407;28;20731;-85
2022/07/21 04:17:40;;;;;;;6.55;1.40;;;;;;;16.48;100.00;101687.81;5076955;28;20107;-86
2022/07/21 04:20:09;;;;;;;4.70;1.08;;;;;;;16.54;100.00;101681.38;5061930;28;20418;-86
2022/07/21 04:22:36;;;;;;;6.10;1.35;;;;;;;16.45;100.00;101676.50;5093321;28;20040;-86
2022/07/21 04:25:05;;;;;;;4.65;1.23;;;;;;;16.19;100.00;101677.75;5100102;28;20040;-86
2022/07/21 04:27:32;;;;;;;2.92;1.17;;;;;;;16.49;100.00;101668.34;5076464;28;20482;-86
2022/07/21 04:29:59;;;;;;;4.30;1.20;;;;;;;16.54;100.00;101678.72;5071519;28;20387;-86
2022/07/21 04:32:26;;;;;;;2.67;1.00;;;;;;;16.49;100.00;101692.16;5076174;28;20040;-86
2022/07/21 04:34:53;;;;;;;4.65;1.35;;;;;;;16.95;100.00;101673.25;5070240;28;20512;-86
2022/07/21 04:37:19;;;;;;;4.97;1.30;;;;;;;17.53;100.00;101689.72;5064389;28;20055;-87
2022/07/21 04:39:46;;;;;;;3.72;1.33;;;;;;;17.90;100.00;101694.00;5070148;28;20052;-86
2022/07/21 04:42:18;;;;;;;3.17;1.00;;;;;;;18.02;100.00;101679.22;5063992;28;20066;-86
2022/07/21 04:44:46;;;;;;;6.22;1.25;;;;;;;18.11;100.00;101699.09;5065633;28;20044;-87
2022/07/21 04:47:13;;;;;;;9.95;1.30;;;;;;;18.33;100.00;101693.47;5076898;28;20044;-87
2022/07/21 04:49:40;;;;;;;7.05;1.50;;;;;;;18.35;100.00;101684.50;5082726;28;20048;-87
2022/07/21 04:52:07;;;;;;;4.38;1.05;;;;;;;18.91;100.00;101706.16;5070809;28;20032;-87
2022/07/21 04:54:33;;;;;;;5.53;1.40;;;;;;;19.04;100.00;101692.19;5075889;28;20048;-86
2022/07/21 04:57:02;;;;;;;4.30;1.10;;;;;;;18.25;100.00;101699.19;5076338;28;20138;-86
2022/07/21 04:59:29;;;;;;;3.70;1.20;;;;;;;18.14;100.00;101698.94;5094264;28;20055;-86
2022/07/21 05:01:57;;;;;;;3.03;1.10;;;;;;;17.36;100.00;101702.06;5076430;28;20048;-86
2022/07/21 05:04:24;;;;;;;5.80;1.58;;;;;;;17.17;100.00;101696.81;5075885;28;20043;-86
2022/07/21 05:06:52;;;;;;;4.32;1.10;;;;;;;16.70;100.00;101695.56;5076820;28;20113;-87
2022/07/21 05:09:19;;;;;;;3.72;1.10;;;;;;;16.39;100.00;101708.50;5062076;28;20045;-86
2022/07/21 05:11:46;;;;;;;5.57;1.10;;;;;;;16.58;100.00;101705.88;5080540;28;20058;-86
2022/07/21 05:14:13;;;;;;;6.85;1.10;;;;;;;16.42;100.00;101718.94;5061968;28;20045;-86
2022/07/21 05:16:41;;;;;;;3.97;1.00;;;;;;;16.09;100.00;101722.19;5074963;28;20414;-86
2022/07/21 05:19:08;;;;;;;3.50;1.00;;;;;;;15.99;100.00;101734.09;5064701;28;20047;-86
2022/07/21 05:21:35;;;;;;;5.60;0.98;;;;;;;15.75;100.00;101719.25;5074430;28;20040;-86
2022/07/21 05:24:01;;;;;;;3.92;1.00;;;;;;;15.93;100.00;101741.34;5080327;28;20386;-86
2022/07/21 05:26:28;;;;;;;4.05;0.90;;;;;;;15.58;100.00;101724.38;5061056;28;20142;-86
2022/07/21 05:28:55;;;;;;;1.80;0.75;;;;;;;15.67;100.00;101741.59;5075791;28;20052;-86
2022/07/21 05:31:22;;;;;;;2.85;1.00;;;;;;;15.83;100.00;101728.63;5093281;28;20056;-85
2022/07/21 05:33:49;;;;;;;2.22;1.00;;;;;;;15.51;100.00;101749.31;5060142;28;20052;-86
2022/07/21 05:36:18;;;;;;;2.13;0.80;;;;;;;15.50;100.00;101745.84;5081217;28;20059;-86
2022/07/21 05:38:46;;;;;;;3.47;1.00;;;;;;;15.56;100.00;101744.72;5061539;28;20097;-86
2022/07/21 05:41:13;;;;;;;4.28;1.02;;;;;;;16.06;100.00;101759.31;5074837;28;20056;-86
2022/07/21 05:43:40;;;;;;;2.90;1.10;;;;;;;15.87;100.00;101748.72;5070751;28;20046;-87
2022/07/21 05:46:06;;;;;;;3.55;1.15;;;;;;;16.15;100.00;101761.56;5101149;28;20054;-87
2022/07/21 05:48:33;;;;;;;1.67;0.90;;;;;;;16.29;100.00;101755.66;5082092;28;20056;-86
2022/07/21 05:51:00;;;;;;;6.53;1.48;;;;;;;16.14;100.00;101762.47;5079379;28;20048;-85
2022/07/21 05:53:27;;;;;;;5.45;1.30;;;;;;;16.04;100.00;101767.34;5083248;28;20063;-85
2022/07/21 05:55:54;;;;;;;4.82;1.10;;;;;;;15.91;100.00;101771.41;5084088;28;20051;-85
2022/07/21 05:58:23;;;;;;;7.50;1.23;;;;;;;15.94;100.00;101787.13;5081524;28;20054;-87
2022/07/21 06:01:13;;;;;;;5.15;1.23;;;;;;;15.81;100.00;101778.91;5078903;28;20052;-86
2022/07/21 06:03:51;;;;;;;4.72;1.35;;;;;;;15.92;100.00;101787.19;5056829;28;20052;-87
2022/07/21 06:06:19;;;;;;;4.70;1.30;;;;;;;16.13;100.00;101789.84;5080871;28;20077;-87
2022/07/21 06:08:49;;;;;;;5.78;1.25;;;;;;;17.40;100.00;101775.06;5068896;28;20044;-88
2022/07/21 06:11:18;;;;;;;3.67;1.45;;;;;;;17.68;100.00;101783.44;5067612;28;20044;-87
2022/07/21 06:13:46;;;;;;;5.03;1.40;;;;;;;17.99;100.00;101764.22;5087342;28;20048;-88
2022/07/21 06:16:13;;;;;;;6.07;1.20;;;;;;;18.31;100.00;101769.56;5073766;28;20139;-88
2022/07/21 06:18:43;;;;;;;5.43;1.38;;;;;;;17.74;100.00;101772.50;5087738;28;20050;-88
2022/07/21 06:21:09;;;;;;;5.43;1.83;;;;;;;18.14;100.00;101744.81;5082356;28;20056;-89
2022/07/21 06:23:36;;;;;;;4.35;1.10;;;;;;;18.51;100.00;101763.19;5084985;28;20048;-88
2022/07/21 06:26:03;;;;;;;6.65;1.30;;;;;;;19.52;100.00;101765.44;5076829;28;20056;-87
2022/07/21 06:28:30;;;;;;;8.20;1.35;;;;;;;20.15;100.00;101790.06;5075740;28;20052;-88
2022/07/21 06:30:57;;;;;;;5.20;1.20;;;;;;;20.25;100.00;101787.69;5091249;28;20062;-84
2022/07/21 06:33:24;;;;;;;2.85;0.98;;;;;;;19.78;100.00;101757.75;5082847;28;20036;-87
2022/07/21 06:35:51;;;;;;;4.55;1.25;;;;;;;19.44;100.00;101777.44;5085200;28;20086;-87
2022/07/21 06:38:19;;;;;;;6.75;1.30;;;;;;;19.57;100.00;101772.28;5091347;28;20127;-86
2022/07/21 06:40:46;;;;;;;4.93;1.20;;;;;;;19.31;100.00;101799.41;5079181;28;20143;-86
2022/07/21 06:43:13;;;;;;;4.88;1.30;;;;;;;18.44;100.00;101797.16;5096178;28;20131;-86
2022/07/21 06:45:56;;;;;;;5.38;1.20;;;;;;;18.59;100.00;101798.97;5081887;28;20052;-86
2022/07/21 06:48:24;;;;;;;6.35;1.20;;;;;;;19.04;100.00;101791.22;5100714;28;20060;-86
2022/07/21 06:50:53;;;;;;;4.82;1.20;;;;;;;19.15;100.00;101783.50;5082353;28;20538;-87
2022/07/21 06:53:20;;;;;;;4.45;1.33;;;;;;;19.79;100.00;101817.91;5090254;28;20039;-86
2022/07/21 06:55:49;;;;;;;6.28;1.40;;;;;;;19.26;100.00;101835.13;5095408;28;20046;-86
2022/07/21 06:58:18;;;;;;;5.72;1.40;;;;;;;19.04;100.00;101816.91;5094469;28;20052;-86
2022/07/21 07:00:46;;;;;;;5.05;1.23;;;;;;;19.15;100.00;101831.28;5088153;28;20074;-86
2022/07/21 07:03:14;;;;;;;3.67;0.90;;;;;;;19.76;100.00;101809.25;5074174;28;20123;-86
2022/07/21 07:05:42;;;;;;;3.92;1.00;;;;;;;19.51;100.00;101789.41;5075869;28;20098;-87
2022/07/21 07:08:10;;;;;;;3.70;1.08;;;;;;;19.67;100.00;101842.50;5070075;28;20052;-86
2022/07/21 07:10:39;;;;;;;4.03;1.02;;;;;;;19.82;100.00;101812.41;5081776;28;20769;-85
2022/07/21 07:13:07;;;;;;;4.30;1.15;;;;;;;19.41;95.97;101797.06;5070001;28;20046;-87
2022/07/21 07:15:53;;;;;;;2.92;0.93;;;;;;;19.00;100.00;101779.06;5090139;28;20048;-87
2022/07/21 07:18:22;;;;;;;4.68;1.30;;;;;;;19.32;100.00;101809.09;5078958;28;20123;-86
2022/07/21 07:20:48;;;;;;;4.75;1.05;;;;;;;19.05;100.00;101800.03;5099852;28;20044;-86
2022/07/21 07:23:15;;;;;;;5.72;1.67;;;;;;;20.00;96.47;101802.47;5081107;28;20049;-85
2022/07/21 07:25:44;;;;;;;3.67;1.10;;;;;;;20.61;90.92;101842.19;5090297;28;20055;-87
2022/07/21 07:28:12;;;;;;;4.85;1.30;;;;;;;19.57;91.87;101797.03;5077952;28;20047;-88
2022/07/21 07:30:39;;;;;;;3.22;1.00;;;;;;;19.74;94.20;101809.34;5093573;28;20043;-89
2022/07/21 07:33:06;;;;;;;3.83;1.10;;;;;;;20.00;90.96;101798.97;5085886;28;20047;-89
2022/07/21 07:35:33;;;;;;;3.80;1.30;;;;;;;20.28;88.82;101811.44;5071677;28;20120;-89
2022/07/21 07:38:00;;;;;;;3.65;0.95;;;;;;;20.95;85.63;101822.31;5084023;28;20082;-88
2022/07/21 07:40:26;;;;;;;5.20;1.13;;;;;;;21.38;80.82;101834.66;5100272;28;20048;-89
2022/07/21 07:42:53;;;;;;;3.40;1.00;;;;;;;20.84;79.84;101812.38;5089427;28;20573;-88
2022/07/21 07:45:21;;;;;;;4.40;1.02;;;;;;;21.06;80.05;101826.97;5081443;28;20048;-88
2022/07/21 07:47:48;;;;;;;3.33;1.00;;;;;;;21.40;75.77;101801.63;5092848;28;20060;-89
2022/07/21 07:50:15;;;;;;;4.15;1.17;;;;;;;20.86;77.08;101842.41;5081406;28;20039;-89
2022/07/21 07:52:44;;;;;;;3.65;1.02;;;;;;;21.17;79.07;101807.63;5079163;28;20457;-89
2022/07/21 07:55:12;;;;;;;2.95;0.90;;;;;;;22.20;73.87;101846.03;5067099;28;20203;-89
2022/07/21 07:57:40;;;;;;;1.92;0.70;;;;;;;21.85;68.87;101819.13;5080757;28;20367;-88
2022/07/21 08:00:12;;;;;;;3.47;1.00;;;;;;;21.45;67.89;101845.75;5097770;28;20458;-88
2022/07/21 08:02:59;;;;;;;4.88;0.90;;;;;;;21.89;66.60;101842.81;5073282;28;20390;-88
2022/07/21 08:05:26;;;;;;;5.15;1.10;;;;;;;22.02;68.31;101832.16;5084147;28;20143;-87
2022/07/21 08:07:52;;;;;;;2.20;0.82;;;;;;;21.90;66.70;101817.00;5070551;28;20049;-86
2022/07/21 08:10:19;;;;;;;2.70;0.80;;;;;;;21.30;66.87;101829.84;5110253;28;20047;-86
2022/07/21 08:13:08;;;;;;;4.07;0.90;;;;;;;20.41;69.50;101846.09;5100015;28;20051;-86
2022/07/21 08:15:36;;;;;;;3.90;0.90;;;;;;;20.88;69.44;101855.63;5080248;28;20407;-85
2022/07/21 08:18:03;;;;;;;2.92;0.90;;;;;;;20.74;69.68;101829.03;5070216;28;20068;-84
2022/07/21 08:20:30;;;;;;;4.03;1.10;;;;;;;21.08;69.34;101826.88;5085272;28;20043;-85
2022/07/21 08:22:57;;;;;;;4.20;1.10;;;;;;;20.83;69.55;101828.44;5101730;28;20516;-86
2022/07/21 08:25:24;;;;;;;3.03;0.90;;;;;;;20.96;71.37;101850.63;5103168;28;20131;-85
2022/07/21 08:27:50;;;;;;;3.95;1.00;;;;;;;21.33;69.50;101852.75;5088959;28;20135;-86
2022/07/21 08:30:17;;;;;;;4.40;1.13;;;;;;;20.93;70.44;101789.63;5064821;28;20131;-85
2022/07/21 08:32:46;;;;;;;3.78;1.00;;;;;;;21.44;67.02;101828.91;5068189;28;20112;-86
2022/07/21 08:35:13;;;;;;;3.58;1.10;;;;;;;21.80;66.31;101820.28;5080471;28;20134;-85
2022/07/21 08:37:40;;;;;;;4.22;1.02;;;;;;;21.17;68.79;101787.16;5094834;28;20131;-86
2022/07/21 08:40:10;;;;;;;4.55;1.08;;;;;;;21.10;69.63;101846.25;5076793;28;20474;-86
2022/07/21 08:42:37;;;;;;;5.40;1.20;;;;;;;20.42;71.11;101807.94;5068344;28;20102;-86
2022/07/21 08:45:05;;;;;;;5.80;1.10;;;;;;;20.69;73.35;101857.72;5064047;28;20099;-85
2022/07/21 08:47:34;;;;;;;2.85;1.13;;;;;;;20.95;70.54;101814.34;5072371;28;20044;-86
2022/07/21 08:50:08;;;;;;;3.97;0.98;;;;;;;21.05;69.39;101860.72;5095073;28;20406;-86
2022/07/21 08:52:35;;;;;;;5.05;1.10;;;;;;;20.80;72.40;101857.91;5071845;28;20097;-85
2022/07/21 08:55:03;;;;;;;5.18;1.08;;;;;;;20.81;71.18;101835.66;5066466;28;20044;-86
2022/07/21 08:57:29;;;;;;;4.03;0.98;;;;;;;20.94;71.46;101839.25;5073427;28;20054;-85
2022/07/21 08:59:59;;;;;;;3.75;1.05;;;;;;;21.26;72.54;101841.63;5094623;28;20059;-85
2022/07/21 09:02:34;;;;;;;4.78;0.90;;;;;;;21.07;71.02;101834.00;5077103;28;20048;-85
2022/07/21 09:05:04;;;;;;;5.18;1.17;;;;;;;20.79;72.87;101866.84;5066198;28;20048;-85
2022/07/21 09:07:57;;;;;;;3.22;1.02;;;;;;;20.45;75.45;101844.94;5079815;28;20087;-86
2022/07/21 09:10:26;;;;;;;;;;;;;;;20.77;71.62;101879.38;5071871;28;20093;-86
2022/07/21 09:12:59;;;;;;;2.22;0.93;;;;;;;20.42;73.35;101824.72;5069810;28;19934;-85
2022/07/21 09:15:28;;;;;;;3.30;0.93;;;;;;;21.36;69.56;101868.53;5081668;28;20393;-86
2022/07/21 09:18:07;;;;;;;4.38;0.98;;;;;;;21.83;70.35;101877.03;5067912;28;20052;-85
2022/07/21 09:20:39;;;;;;;4.50;1.10;;;;;;;21.63;68.00;101831.22;5082364;28;20482;-85
2022/07/21 09:23:09;;;;;;;3.58;1.10;;;;;;;21.95;67.48;101831.72;5082753;28;20044;-86
2022/07/21 09:25:43;;;;;;;5.50;1.40;;;;;;;22.50;66.86;101871.56;5081106;28;20044;-85
2022/07/21 09:28:13;;;;;;;4.60;1.45;;;;;;;21.08;64.32;101843.69;5079001;28;20048;-85
2022/07/21 09:30:58;;;;;;;3.25;1.10;;;;;;;20.89;66.90;101856.47;5081754;28;20040;-85
2022/07/21 09:33:32;;;;;;;6.57;1.20;;;;;;;20.80;68.47;101829.47;5081119;28;20049;-85
2022/07/21 09:36:03;;;;;;;4.97;1.15;;;;;;;21.60;67.26;101844.75;5069690;28;20054;-84
2022/07/21 09:38:33;;;;;;;5.13;1.25;;;;;;;21.67;69.40;101871.84;5091289;28;20484;-86
2022/07/21 09:41:05;;;;;;;3.85;1.15;;;;;;;21.76;65.04;101832.13;5070397;28;20098;-87
2022/07/21 09:43:51;;;;;;;5.43;1.27;;;;;;;21.56;64.57;101868.09;5093282;28;20441;-87
2022/07/21 09:46:20;;;;;;;3.05;0.85;;;;;;;22.23;63.68;101848.47;5091349;28;20267;-87
2022/07/21 09:48:50;;;;;;;4.22;1.05;;;;;;;21.82;64.64;101859.34;5091255;28;20143;-86
2022/07/21 09:51:38;;;;;;;3.05;0.85;;;;;;;20.57;66.21;101841.53;5078429;28;20052;-85
2022/07/21 09:54:10;;;;;;;7.85;0.90;;;;;;;21.87;63.73;101844.72;5089915;28;20626;-85
2022/07/21 09:56:39;;;;;;;4.13;1.20;;;;;;;21.14;63.85;101840.63;5093569;28;20039;-89
2022/07/21 09:59:08;;;;;;;3.65;1.00;;;;;;;21.45;63.11;101881.25;5108683;28;20079;-86
2022/07/21 10:01:36;;;;;;;1.88;0.82;;;;;;;21.35;64.24;101859.66;5088352;28;20126;-86
2022/07/21 10:04:04;;;;;;;4.38;1.00;;;;;;;21.40;62.96;101822.06;5094977;28;20043;-86
2022/07/21 10:06:34;;;;;;;3.90;1.17;;;;;;;21.17;63.92;101842.25;5093762;28;20040;-87
2022/07/21 10:09:02;;;;;;;5.25;1.23;;;;;;;21.21;65.05;101865.03;5077843;28;20198;-87
2022/07/21 10:11:29;;;;;;;4.45;1.13;;;;;;;20.86;65.64;101812.28;5098606;28;20074;-87
2022/07/21 10:13:56;;;;;;;4.13;1.20;;;;;;;20.74;67.35;101845.00;5102181;28;20048;-87
2022/07/21 10:16:24;;;;;;;3.63;0.90;;;;;;;21.06;63.92;101880.22;5089665;28;20112;-87
2022/07/21 10:18:57;;;;;;;4.10;1.25;;;;;;;20.12;68.19;101883.31;5089643;28;20443;-87
2022/07/21 10:21:39;;;;;;;;;;;;;;;21.31;65.58;101882.13;5070425;28;20054;-87
2022/07/21 10:24:10;;;;;;;4.85;1.08;;;;;;;21.24;62.33;101841.72;5067063;28;20329;-87
2022/07/21 10:26:39;;;;;;;4.63;1.00;;;;;;;21.57;62.44;101869.81;5087109;28;20459;-87
2022/07/21 10:29:06;;;;;;;2.30;0.90;;;;;;;21.69;59.78;101822.84;5089717;28;20400;-88
2022/07/21 10:31:42;;;;;;;4.25;1.00;;;;;;;21.51;59.91;101838.22;5078931;28;20094;-87
2022/07/21 10:34:09;;;;;;;2.90;0.80;;;;;;;21.66;60.48;101883.50;5077002;28;20075;-88
2022/07/21 10:36:37;;;;;;;4.68;1.02;;;;;;;21.72;60.18;101873.25;5070157;28;20070;-88
2022/07/21 10:39:07;;;;;;;3.80;1.05;;;;;;;21.44;61.94;101876.84;5081099;28;20040;-88
2022/07/21 10:41:44;;;;;;;5.40;1.30;;;;;;;21.41;58.43;101877.94;5079903;28;20049;-87
2022/07/21 10:44:26;;;;;;;3.03;1.00;;;;;;;21.42;59.26;101874.31;5072035;28;20054;-87
2022/07/21 10:47:05;;;;;;;3.38;0.93;;;;;;;21.36;60.08;101844.56;5083981;28;20134;-88
2022/07/21 10:49:56;;;;;;;3.72;0.90;;;;;;;21.48;60.14;101870.44;5085989;28;20050;-87
2022/07/21 10:52:35;;;;;;;3.38;1.00;;;;;;;21.70;58.25;101869.84;5079942;28;20063;-87
2022/07/21 10:55:17;;;;;;;4.53;1.15;;;;;;;21.74;59.48;101881.16;5074037;28;20140;-86
2022/07/21 10:57:46;;;;;;;5.10;0.85;;;;;;;21.28;56.30;101831.72;5087333;28;20060;-86
2022/07/21 11:00:21;;;;;;;2.58;0.70;;;;;;;21.52;55.31;101860.41;5092959;28;20130;-87
2022/07/21 11:02:55;;;;;;;3.83;1.00;;;;;;;21.58;57.38;101852.88;5087867;28;20048;-87
2022/07/21 11:05:24;;;;;;;3.67;1.00;;;;;;;21.84;54.45;101817.44;5079305;28;20044;-88
2022/07/21 11:08:12;;;;;;;3.40;1.00;;;;;;;22.09;54.74;101864.59;5082085;28;20048;-87
2022/07/21 11:10:51;;;;;;;2.17;0.70;;;;;;;21.80;55.18;101851.44;5083035;28;20048;-88
2022/07/21 11:13:22;;;;;;;5.35;1.10;;;;;;;21.39;55.46;101826.56;5057140;28;20127;-88
2022/07/21 11:16:01;;;;;;;2.85;0.98;;;;;;;21.91;55.96;101816.03;5061212;28;20041;-87
2022/07/21 11:18:31;;;;;;;1.52;0.75;;;;;;;22.29;56.81;101828.56;5061163;28;20051;-87
2022/07/21 11:21:07;;;;;;;5.88;1.13;;;;;;;22.69;54.38;101871.97;5066619;28;20438;-88
2022/07/21 11:23:50;;;;;;;4.00;1.08;;;;;;;21.93;54.38;101798.97;5075725;28;20040;-88
2022/07/21 11:26:23;;;;;;;3.50;1.00;;;;;;;21.98;53.96;101830.66;5070807;28;20076;-88
2022/07/21 11:29:05;;;;;;;3.40;1.00;;;;;;;23.46;52.97;101862.88;5075629;28;20119;-86
2022/07/21 11:31:45;;;;;;;3.63;0.90;;;;;;;22.33;54.22;101817.56;5083569;28;20044;-87
2022/07/21 11:34:12;;;;;;;4.63;1.27;;;;;;;22.49;57.04;101865.38;5084612;28;20044;-87